createdAt,value
2022-11-28T00:00:15.903Z,0
2022-11-28T00:01:15.890Z,0
2022-11-28T00:02:16.030Z,0
2022-11-28T00:03:16.127Z,0
2022-11-28T00:04:15.888Z,0
2022-11-28T00:05:15.898Z,0
2022-11-28T00:06:15.899Z,0
2022-11-28T00:07:15.959Z,0
2022-11-28T00:08:15.889Z,0
2022-11-28T00:09:15.891Z,0
2022-11-28T00:10:15.902Z,0
2022-11-28T00:11:15.893Z,0
2022-11-28T00:12:15.888Z,0
2022-11-28T00:13:15.890Z,0
2022-11-28T00:14:15.895Z,0
2022-11-28T00:15:15.885Z,0
2022-11-28T00:16:15.981Z,0
2022-11-28T00:17:15.899Z,0
2022-11-28T00:18:15.895Z,0
2022-11-28T00:19:16.020Z,0
2022-11-28T00:20:15.903Z,0
2022-11-28T00:21:15.909Z,0
2022-11-28T00:22:15.910Z,0
2022-11-28T00:23:15.903Z,0
2022-11-28T00:24:15.901Z,0
2022-11-28T00:25:15.914Z,0
2022-11-28T00:26:15.908Z,0
2022-11-28T00:27:15.908Z,0
2022-11-28T00:28:15.909Z,0
2022-11-28T00:29:15.908Z,0
2022-11-28T00:30:15.916Z,0
2022-11-28T00:31:15.957Z,0
2022-11-28T00:32:16.036Z,0
2022-11-28T00:33:15.912Z,0
2022-11-28T00:34:15.915Z,0
2022-11-28T00:35:16.036Z,0
2022-11-28T00:36:15.924Z,0
2022-11-28T00:37:15.910Z,0
2022-11-28T00:38:15.934Z,0
2022-11-28T00:39:15.923Z,0
2022-11-28T00:40:15.913Z,0
2022-11-28T00:41:15.918Z,0
2022-11-28T00:42:15.923Z,0
2022-11-28T00:43:15.930Z,0
2022-11-28T00:44:15.932Z,0
2022-11-28T00:45:15.928Z,0
2022-11-28T00:46:15.999Z,0
2022-11-28T00:47:15.916Z,0
2022-11-28T00:48:15.929Z,0
2022-11-28T00:49:15.936Z,0
2022-11-28T00:50:15.934Z,0
2022-11-28T00:51:16.050Z,0
2022-11-28T00:52:15.928Z,0
2022-11-28T00:53:15.932Z,0
2022-11-28T00:54:15.930Z,0
2022-11-28T00:55:15.928Z,0
2022-11-28T00:56:15.935Z,0
2022-11-28T00:57:15.931Z,0
2022-11-28T00:58:15.939Z,0
2022-11-28T00:59:15.938Z,0
2022-11-28T01:00:15.937Z,0
2022-11-28T01:01:16.025Z,0
2022-11-28T01:02:15.974Z,0
2022-11-28T01:03:15.939Z,0
2022-11-28T01:04:15.939Z,0
2022-11-28T01:05:15.942Z,0
2022-11-28T01:06:15.936Z,0
2022-11-28T01:07:16.107Z,0
2022-11-28T01:08:15.953Z,0
2022-11-28T01:09:15.938Z,0
2022-11-28T01:10:15.944Z,0
2022-11-28T01:11:15.943Z,0
2022-11-28T01:12:15.944Z,0
2022-11-28T01:13:15.939Z,0
2022-11-28T01:14:15.943Z,0
2022-11-28T01:15:15.942Z,0
2022-11-28T01:16:15.991Z,0
2022-11-28T01:17:15.948Z,0
2022-11-28T01:18:15.946Z,0
2022-11-28T01:19:16.455Z,0
2022-11-28T01:20:15.953Z,0
2022-11-28T01:21:15.955Z,0
2022-11-28T01:22:15.947Z,0
2022-11-28T01:23:16.067Z,0
2022-11-28T01:24:15.957Z,0
2022-11-28T01:25:15.955Z,0
2022-11-28T01:26:15.965Z,0
2022-11-28T01:27:15.966Z,0
2022-11-28T01:28:15.948Z,0
2022-11-28T01:29:15.961Z,0
2022-11-28T01:30:15.969Z,0
2022-11-28T01:31:16.005Z,0
2022-11-28T01:32:15.968Z,0
2022-11-28T01:33:15.971Z,0
2022-11-28T01:34:15.962Z,0
2022-11-28T01:35:15.977Z,0
2022-11-28T01:36:15.963Z,0
2022-11-28T01:37:15.968Z,0
2022-11-28T01:38:15.969Z,0
2022-11-28T01:39:16.095Z,0
2022-11-28T01:40:15.977Z,0
2022-11-28T01:41:15.972Z,0
2022-11-28T01:42:15.974Z,0
2022-11-28T01:43:15.977Z,0
2022-11-28T01:44:15.978Z,0
2022-11-28T01:45:15.979Z,0
2022-11-28T01:46:16.046Z,0
2022-11-28T01:47:16.007Z,0
2022-11-28T01:48:15.985Z,3.1
2022-11-28T01:49:15.975Z,4.4
2022-11-28T01:50:15.982Z,3.4000000000000004
2022-11-28T01:51:15.986Z,4.3
2022-11-28T01:52:15.981Z,5.1000000000000005
2022-11-28T01:53:15.983Z,3.3000000000000003
2022-11-28T01:54:15.996Z,2.8000000000000003
2022-11-28T01:55:16.096Z,3.8000000000000003
2022-11-28T01:56:15.993Z,0
2022-11-28T01:57:15.991Z,0
2022-11-28T01:58:15.984Z,2.1
2022-11-28T01:59:15.983Z,0
2022-11-28T02:00:15.990Z,0
2022-11-28T02:01:16.098Z,0
2022-11-28T02:02:16.064Z,0
2022-11-28T02:03:16.001Z,0
2022-11-28T02:04:16.001Z,0
2022-11-28T02:05:15.993Z,0
2022-11-28T02:06:15.991Z,0
2022-11-28T02:07:16.048Z,0
2022-11-28T02:08:16.002Z,0
2022-11-28T02:09:16.015Z,0
2022-11-28T02:10:15.999Z,3.4000000000000004
2022-11-28T02:11:16.110Z,5.1000000000000005
2022-11-28T02:12:16.006Z,4.2
2022-11-28T02:13:15.993Z,3.6
2022-11-28T02:14:16.006Z,4.4
2022-11-28T02:15:16.002Z,4.7
2022-11-28T02:16:16.101Z,2.8000000000000003
2022-11-28T02:17:16.013Z,3.6
2022-11-28T02:18:16.002Z,0
2022-11-28T02:19:16.000Z,0
2022-11-28T02:20:16.009Z,0
2022-11-28T02:21:15.996Z,0
2022-11-28T02:22:16.006Z,0
2022-11-28T02:23:16.007Z,0
2022-11-28T02:24:16.018Z,0
2022-11-28T02:25:16.014Z,0
2022-11-28T02:26:16.016Z,0
2022-11-28T02:27:16.131Z,0
2022-11-28T02:28:16.023Z,0
2022-11-28T02:29:16.016Z,0
2022-11-28T02:30:16.021Z,0
2022-11-28T02:31:16.070Z,0
2022-11-28T02:32:16.015Z,0
2022-11-28T02:33:16.017Z,0
2022-11-28T02:34:16.026Z,0
2022-11-28T02:35:16.021Z,0
2022-11-28T02:36:16.023Z,0
2022-11-28T02:37:16.022Z,0
2022-11-28T02:38:16.015Z,0
2022-11-28T02:39:16.031Z,0
2022-11-28T02:40:16.015Z,0
2022-11-28T02:41:16.031Z,0
2022-11-28T02:42:16.026Z,0
2022-11-28T02:43:16.142Z,0
2022-11-28T02:44:16.036Z,0
2022-11-28T02:45:16.020Z,0
2022-11-28T02:46:16.102Z,0
2022-11-28T02:47:16.030Z,0
2022-11-28T02:48:16.027Z,0
2022-11-28T02:49:16.023Z,0
2022-11-28T02:50:16.033Z,0
2022-11-28T02:51:16.030Z,0
2022-11-28T02:52:16.025Z,0
2022-11-28T02:53:16.033Z,0
2022-11-28T02:54:16.033Z,0
2022-11-28T02:55:16.038Z,0
2022-11-28T02:56:16.034Z,0
2022-11-28T02:57:16.034Z,0
2022-11-28T02:58:16.032Z,0
2022-11-28T02:59:16.156Z,0
2022-11-28T03:00:17.797Z,0
2022-11-28T03:01:16.111Z,0
2022-11-28T03:02:16.125Z,0
2022-11-28T03:03:16.055Z,0
2022-11-28T03:04:16.040Z,0
2022-11-28T03:05:16.034Z,0
2022-11-28T03:06:16.048Z,0
2022-11-28T03:07:16.086Z,0
2022-11-28T03:08:16.043Z,0
2022-11-28T03:09:16.043Z,0
2022-11-28T03:10:16.039Z,0
2022-11-28T03:11:16.042Z,0
2022-11-28T03:12:16.053Z,0
2022-11-28T03:13:16.038Z,0
2022-11-28T03:14:16.055Z,0
2022-11-28T03:15:16.172Z,0
2022-11-28T03:16:16.075Z,0
2022-11-28T03:17:16.055Z,0
2022-11-28T03:18:16.045Z,0
2022-11-28T03:19:16.047Z,0
2022-11-28T03:20:16.055Z,0
2022-11-28T03:21:16.045Z,0
2022-11-28T03:22:16.055Z,0
2022-11-28T03:23:16.064Z,0
2022-11-28T03:24:16.061Z,0
2022-11-28T03:25:16.052Z,0
2022-11-28T03:26:16.061Z,0
2022-11-28T03:27:16.057Z,0
2022-11-28T03:28:16.058Z,0
2022-11-28T03:29:16.071Z,0
2022-11-28T03:30:16.060Z,0
2022-11-28T03:31:16.268Z,0
2022-11-28T03:32:16.067Z,0
2022-11-28T03:33:16.058Z,0
2022-11-28T03:34:16.067Z,0
2022-11-28T03:35:16.072Z,0
2022-11-28T03:36:16.062Z,0
2022-11-28T03:37:16.076Z,0
2022-11-28T03:38:16.068Z,0
2022-11-28T03:39:16.076Z,0
2022-11-28T03:40:16.070Z,0
2022-11-28T03:41:16.071Z,0
2022-11-28T03:42:16.076Z,0
2022-11-28T03:43:16.077Z,0
2022-11-28T03:44:16.086Z,0
2022-11-28T03:45:16.072Z,0
2022-11-28T03:46:16.144Z,0
2022-11-28T03:47:16.183Z,0
2022-11-28T03:48:16.074Z,0
2022-11-28T03:49:16.062Z,0
2022-11-28T03:50:16.069Z,0
2022-11-28T03:51:16.074Z,0
2022-11-28T03:52:16.081Z,0
2022-11-28T03:53:16.076Z,0
2022-11-28T03:54:16.088Z,0
2022-11-28T03:55:16.211Z,0
2022-11-28T03:56:16.086Z,0
2022-11-28T03:57:16.082Z,0
2022-11-28T03:58:16.077Z,0
2022-11-28T03:59:16.084Z,0
2022-11-28T04:00:16.086Z,0
2022-11-28T04:01:16.137Z,0
2022-11-28T04:02:16.091Z,0
2022-11-28T04:03:16.283Z,0
2022-11-28T04:04:16.099Z,0
2022-11-28T04:05:16.078Z,0
2022-11-28T04:06:16.084Z,0
2022-11-28T04:07:16.129Z,0
2022-11-28T04:08:16.082Z,0
2022-11-28T04:09:16.081Z,0
2022-11-28T04:10:16.094Z,0
2022-11-28T04:11:16.083Z,0
2022-11-28T04:12:16.091Z,0
2022-11-28T04:13:16.084Z,0
2022-11-28T04:14:16.088Z,0
2022-11-28T04:15:16.090Z,0
2022-11-28T04:16:16.135Z,0
2022-11-28T04:17:16.077Z,0
2022-11-28T04:18:16.087Z,0
2022-11-28T04:19:16.222Z,0
2022-11-28T04:20:16.089Z,0
2022-11-28T04:21:16.084Z,0
2022-11-28T04:22:16.080Z,0
2022-11-28T04:23:16.087Z,0
2022-11-28T04:24:16.086Z,0
2022-11-28T04:25:16.090Z,0
2022-11-28T04:26:16.082Z,0
2022-11-28T04:27:16.104Z,0
2022-11-28T04:28:16.098Z,0
2022-11-28T04:29:16.087Z,0
2022-11-28T04:30:16.097Z,0
2022-11-28T04:31:16.127Z,0
2022-11-28T04:32:16.101Z,0
2022-11-28T04:33:16.085Z,0
2022-11-28T04:34:16.084Z,0
2022-11-28T04:35:16.212Z,0
2022-11-28T04:36:16.096Z,0
2022-11-28T04:37:16.091Z,0
2022-11-28T04:38:16.092Z,0
2022-11-28T04:39:16.096Z,0
2022-11-28T04:40:16.086Z,0
2022-11-28T04:41:16.089Z,0
2022-11-28T04:42:16.094Z,0
2022-11-28T04:43:16.084Z,0
2022-11-28T04:44:16.100Z,0
2022-11-28T04:45:16.113Z,0
2022-11-28T04:46:16.187Z,0
2022-11-28T04:47:16.104Z,0
2022-11-28T04:48:16.098Z,0
2022-11-28T04:49:16.104Z,0
2022-11-28T04:50:16.101Z,0
2022-11-28T04:51:16.220Z,0
2022-11-28T04:52:16.097Z,0
2022-11-28T04:53:16.104Z,0
2022-11-28T04:54:16.100Z,0
2022-11-28T04:55:16.100Z,0
2022-11-28T04:56:16.106Z,0
2022-11-28T04:57:16.107Z,0
2022-11-28T04:58:16.113Z,0
2022-11-28T04:59:16.105Z,0
2022-11-28T05:00:16.106Z,0
2022-11-28T05:01:16.164Z,0
2022-11-28T05:02:16.151Z,0
2022-11-28T05:03:16.116Z,0
2022-11-28T05:04:16.111Z,0
2022-11-28T05:05:16.119Z,0
2022-11-28T05:06:16.105Z,0
2022-11-28T05:07:16.309Z,0
2022-11-28T05:08:16.116Z,0
2022-11-28T05:09:16.116Z,0
2022-11-28T05:10:16.114Z,0
2022-11-28T05:11:16.111Z,0
2022-11-28T05:12:16.126Z,0
2022-11-28T05:13:16.120Z,0
2022-11-28T05:14:16.121Z,0
2022-11-28T05:15:16.121Z,0
2022-11-28T05:16:16.168Z,0
2022-11-28T05:17:16.114Z,0
2022-11-28T05:18:16.126Z,0
2022-11-28T05:19:16.125Z,0
2022-11-28T05:20:16.129Z,0
2022-11-28T05:21:16.134Z,0
2022-11-28T05:22:16.127Z,0
2022-11-28T05:23:16.239Z,0
2022-11-28T05:24:16.143Z,0
2022-11-28T05:25:16.127Z,0
2022-11-28T05:26:16.124Z,0
2022-11-28T05:27:16.135Z,0
2022-11-28T05:28:16.131Z,0
2022-11-28T05:29:16.134Z,0
2022-11-28T05:30:16.135Z,0
2022-11-28T05:31:16.178Z,0
2022-11-28T05:32:16.137Z,0
2022-11-28T05:33:16.137Z,0
2022-11-28T05:34:16.140Z,0
2022-11-28T05:35:16.142Z,0
2022-11-28T05:36:16.140Z,0
2022-11-28T05:37:16.144Z,0
2022-11-28T05:38:16.155Z,0
2022-11-28T05:39:16.254Z,0
2022-11-28T05:40:16.151Z,0
2022-11-28T05:41:16.145Z,0
2022-11-28T05:42:16.147Z,0
2022-11-28T05:43:16.147Z,0
2022-11-28T05:44:16.149Z,0
2022-11-28T05:45:16.158Z,0
2022-11-28T05:46:16.211Z,0
2022-11-28T05:47:16.152Z,0
2022-11-28T05:48:16.159Z,0
2022-11-28T05:49:16.151Z,0
2022-11-28T05:50:16.155Z,0
2022-11-28T05:51:16.159Z,0
2022-11-28T05:52:16.157Z,0
2022-11-28T05:53:16.167Z,0
2022-11-28T05:54:16.154Z,0
2022-11-28T05:55:16.278Z,0
2022-11-28T05:56:16.177Z,0
2022-11-28T05:57:16.158Z,0
2022-11-28T05:58:16.167Z,0
2022-11-28T05:59:16.223Z,0
2022-11-28T06:00:16.171Z,0
2022-11-28T06:01:16.171Z,0
2022-11-28T06:02:16.261Z,0
2022-11-28T06:03:16.185Z,0
2022-11-28T06:04:16.203Z,0
2022-11-28T06:05:40.782Z,0
2022-11-28T06:06:16.191Z,0
2022-11-28T06:07:16.232Z,0
2022-11-28T06:08:16.188Z,0
2022-11-28T06:09:16.187Z,0
2022-11-28T06:10:16.184Z,0
2022-11-28T06:11:16.299Z,0
2022-11-28T06:12:16.192Z,0
2022-11-28T06:13:16.184Z,0
2022-11-28T06:14:16.193Z,0
2022-11-28T06:15:16.198Z,0
2022-11-28T06:16:16.229Z,0
2022-11-28T06:17:16.187Z,0
2022-11-28T06:18:16.200Z,0
2022-11-28T06:19:16.212Z,0
2022-11-28T06:20:16.197Z,0
2022-11-28T06:21:16.204Z,0
2022-11-28T06:22:16.216Z,0
2022-11-28T06:23:16.208Z,0
2022-11-28T06:24:16.214Z,0
2022-11-28T06:25:16.217Z,0
2022-11-28T06:26:16.221Z,0
2022-11-28T06:27:16.321Z,0
2022-11-28T06:28:16.220Z,0
2022-11-28T06:29:16.211Z,0
2022-11-28T06:30:16.205Z,0
2022-11-28T06:31:16.234Z,0
2022-11-28T06:32:20.500Z,0
2022-11-28T06:33:16.228Z,0
2022-11-28T06:34:16.214Z,0
2022-11-28T06:35:16.221Z,0
2022-11-28T06:36:16.225Z,0
2022-11-28T06:37:16.229Z,0
2022-11-28T06:38:16.229Z,0
2022-11-28T06:39:16.232Z,0
2022-11-28T06:40:16.224Z,0
2022-11-28T06:41:16.239Z,0
2022-11-28T06:42:16.231Z,0
2022-11-28T06:43:16.353Z,0
2022-11-28T06:44:16.246Z,0
2022-11-28T06:45:16.236Z,0
2022-11-28T06:46:16.844Z,0
2022-11-28T06:47:16.247Z,0
2022-11-28T06:48:16.244Z,0
2022-11-28T06:49:16.243Z,0
2022-11-28T06:50:16.239Z,0
2022-11-28T06:51:16.247Z,0
2022-11-28T06:52:16.256Z,0
2022-11-28T06:53:16.239Z,0
2022-11-28T06:54:16.262Z,0
2022-11-28T06:55:16.267Z,0
2022-11-28T06:56:16.259Z,0
2022-11-28T06:57:16.261Z,0
2022-11-28T06:58:16.264Z,0
2022-11-28T06:59:16.368Z,0
2022-11-28T07:00:16.261Z,0
2022-11-28T07:01:16.333Z,0
2022-11-28T07:02:16.307Z,0
2022-11-28T07:03:16.264Z,0
2022-11-28T07:04:16.267Z,0
2022-11-28T07:05:16.252Z,0
2022-11-28T07:06:16.267Z,0
2022-11-28T07:07:16.904Z,0
2022-11-28T07:08:16.274Z,0
2022-11-28T07:09:16.266Z,0
2022-11-28T07:10:16.270Z,0
2022-11-28T07:11:16.258Z,0
2022-11-28T07:12:16.267Z,0
2022-11-28T07:13:16.269Z,0
2022-11-28T07:14:16.257Z,0
2022-11-28T07:15:16.391Z,0
2022-11-28T07:16:16.354Z,0
2022-11-28T07:17:16.279Z,0
2022-11-28T07:18:16.290Z,0
2022-11-28T07:19:16.284Z,0
2022-11-28T07:20:16.294Z,0
2022-11-28T07:21:16.300Z,0
2022-11-28T07:22:16.355Z,0
2022-11-28T07:23:16.292Z,0
2022-11-28T07:24:16.285Z,0
2022-11-28T07:25:16.283Z,0
2022-11-28T07:26:16.292Z,0
2022-11-28T07:27:16.285Z,0
2022-11-28T07:28:19.471Z,0
2022-11-28T07:29:16.285Z,0
2022-11-28T07:30:16.304Z,0
2022-11-28T07:31:16.481Z,0
2022-11-28T07:32:16.300Z,0
2022-11-28T07:33:16.301Z,0
2022-11-28T07:34:16.296Z,0
2022-11-28T07:35:16.305Z,0
2022-11-28T07:36:16.314Z,0
2022-11-28T07:37:16.301Z,0
2022-11-28T07:38:16.310Z,0
2022-11-28T07:39:16.309Z,0
2022-11-28T07:40:16.307Z,0
2022-11-28T07:41:16.304Z,0
2022-11-28T07:42:16.299Z,0
2022-11-28T07:43:16.311Z,0
2022-11-28T07:44:16.319Z,0
2022-11-28T07:45:16.324Z,0
2022-11-28T07:46:16.399Z,0
2022-11-28T07:47:16.350Z,0
2022-11-28T07:48:16.318Z,0
2022-11-28T07:49:16.317Z,0
2022-11-28T07:50:16.316Z,0
2022-11-28T07:51:16.332Z,0
2022-11-28T07:52:16.325Z,0
2022-11-28T07:53:16.322Z,0
2022-11-28T07:54:16.328Z,0
2022-11-28T07:55:16.328Z,0
2022-11-28T07:56:16.322Z,0
2022-11-28T07:57:16.337Z,0
2022-11-28T07:58:16.327Z,0
2022-11-28T07:59:16.344Z,0
2022-11-28T08:00:16.327Z,0
2022-11-28T08:01:16.332Z,0
2022-11-28T08:02:16.368Z,0
2022-11-28T08:03:16.359Z,0
2022-11-28T08:04:16.402Z,0
2022-11-28T08:05:16.392Z,0
2022-11-28T08:06:16.335Z,0
2022-11-28T08:07:16.431Z,0
2022-11-28T08:08:16.338Z,0
2022-11-28T08:09:16.333Z,0
2022-11-28T08:10:16.346Z,0
2022-11-28T08:11:16.347Z,0
2022-11-28T08:12:16.349Z,0
2022-11-28T08:13:16.345Z,0
2022-11-28T08:14:16.344Z,0
2022-11-28T08:15:16.348Z,0
2022-11-28T08:16:16.396Z,0
2022-11-28T08:17:16.350Z,0
2022-11-28T08:18:16.349Z,0
2022-11-28T08:19:16.386Z,0
2022-11-28T08:20:16.355Z,0
2022-11-28T08:21:16.345Z,0
2022-11-28T08:22:16.347Z,0
2022-11-28T08:23:16.351Z,0
2022-11-28T08:24:16.355Z,0
2022-11-28T08:25:16.358Z,0
2022-11-28T08:26:16.367Z,0
2022-11-28T08:27:16.351Z,0
2022-11-28T08:28:16.365Z,0
2022-11-28T08:29:16.367Z,0
2022-11-28T08:30:16.366Z,0
2022-11-28T08:31:16.420Z,0
2022-11-28T08:32:16.367Z,0
2022-11-28T08:33:16.357Z,0
2022-11-28T08:34:16.363Z,0
2022-11-28T08:35:16.386Z,0
2022-11-28T08:36:16.361Z,0
2022-11-28T08:37:16.368Z,0
2022-11-28T08:38:16.365Z,0
2022-11-28T08:39:25.006Z,0
2022-11-28T08:40:16.367Z,0
2022-11-28T08:41:16.371Z,0
2022-11-28T08:42:16.376Z,0
2022-11-28T08:43:16.369Z,0
2022-11-28T08:44:16.373Z,0
2022-11-28T08:45:16.375Z,0
2022-11-28T08:46:16.393Z,0
2022-11-28T08:47:16.369Z,0
2022-11-28T08:48:16.377Z,0
2022-11-28T08:49:16.373Z,0
2022-11-28T08:50:16.375Z,0
2022-11-28T08:51:16.398Z,0
2022-11-28T08:52:16.367Z,0
2022-11-28T08:53:18.409Z,0
2022-11-28T08:54:16.378Z,0
2022-11-28T08:55:16.386Z,0
2022-11-28T08:56:16.381Z,0
2022-11-28T08:57:16.378Z,0
2022-11-28T08:58:16.376Z,0
2022-11-28T08:59:16.387Z,0
2022-11-28T09:00:16.405Z,0
2022-11-28T09:01:16.480Z,0
2022-11-28T09:02:16.375Z,0
2022-11-28T09:03:16.381Z,0
2022-11-28T09:04:16.501Z,0
2022-11-28T09:05:16.377Z,0
2022-11-28T09:06:16.375Z,0
2022-11-28T09:07:16.476Z,0
2022-11-28T09:08:16.373Z,0
2022-11-28T09:09:16.378Z,0
2022-11-28T09:10:16.370Z,0
2022-11-28T09:11:16.369Z,0
2022-11-28T09:12:16.374Z,0
2022-11-28T09:13:16.392Z,0
2022-11-28T09:14:16.385Z,0
2022-11-28T09:15:16.377Z,0
2022-11-28T09:16:16.421Z,0
2022-11-28T09:17:16.451Z,0
2022-11-28T09:18:16.386Z,0
2022-11-28T09:19:16.389Z,0
2022-11-28T09:20:16.379Z,0
2022-11-28T09:21:16.385Z,0
2022-11-28T09:22:16.374Z,0
2022-11-28T09:23:16.405Z,0
2022-11-28T09:24:16.381Z,0
2022-11-28T09:25:16.373Z,0
2022-11-28T09:26:16.381Z,0
2022-11-28T09:27:16.388Z,0
2022-11-28T09:28:16.377Z,0
2022-11-28T09:29:16.409Z,0
2022-11-28T09:30:16.381Z,0
2022-11-28T09:31:16.420Z,0
2022-11-28T09:32:16.406Z,0
2022-11-28T09:33:16.389Z,0
2022-11-28T09:34:16.400Z,0
2022-11-28T09:35:16.379Z,0
2022-11-28T09:36:16.392Z,0
2022-11-28T09:37:16.383Z,0
2022-11-28T09:38:16.386Z,0
2022-11-28T09:39:16.422Z,0
2022-11-28T09:40:16.578Z,0
2022-11-28T09:41:16.390Z,0
2022-11-28T09:42:16.397Z,0
2022-11-28T09:43:16.395Z,0
2022-11-28T09:44:16.386Z,0
2022-11-28T09:45:16.394Z,0
2022-11-28T09:46:16.443Z,0
2022-11-28T09:47:16.399Z,0
2022-11-28T09:48:16.396Z,0
2022-11-28T09:49:16.398Z,0
2022-11-28T09:50:16.401Z,0
2022-11-28T09:51:16.403Z,0
2022-11-28T09:52:16.443Z,0
2022-11-28T09:53:16.403Z,0
2022-11-28T09:54:16.409Z,0
2022-11-28T09:55:16.427Z,0
2022-11-28T09:56:16.399Z,0
2022-11-28T09:57:16.404Z,0
2022-11-28T09:58:16.434Z,0
2022-11-28T09:59:16.414Z,0
2022-11-28T10:00:16.414Z,0
2022-11-28T10:01:16.417Z,0
2022-11-28T10:02:16.423Z,0
2022-11-28T10:03:16.464Z,0
2022-11-28T10:04:16.557Z,0
2022-11-28T10:05:16.420Z,0
2022-11-28T10:06:16.413Z,0
2022-11-28T10:07:16.489Z,0
2022-11-28T10:08:16.415Z,0
2022-11-28T10:09:16.410Z,0
2022-11-28T10:10:16.436Z,0
2022-11-28T10:11:16.469Z,0
2022-11-28T10:12:16.430Z,0
2022-11-28T10:13:16.419Z,0
2022-11-28T10:14:16.422Z,0
2022-11-28T10:15:16.427Z,0
2022-11-28T10:16:16.461Z,0
2022-11-28T10:17:16.489Z,0
2022-11-28T10:18:16.466Z,0
2022-11-28T10:19:38.546Z,0
2022-11-28T10:20:16.436Z,0
2022-11-28T10:21:16.426Z,0
2022-11-28T10:22:16.451Z,0
2022-11-28T10:23:16.472Z,0
2022-11-28T10:24:16.433Z,0
2022-11-28T10:25:16.454Z,0
2022-11-28T10:26:16.429Z,0
2022-11-28T10:27:16.476Z,0
2022-11-28T10:28:16.447Z,0
2022-11-28T10:29:16.429Z,0
2022-11-28T10:30:16.530Z,0
2022-11-28T10:31:16.502Z,0
2022-11-28T10:32:16.445Z,0
2022-11-28T10:33:16.434Z,0
2022-11-28T10:34:16.437Z,0
2022-11-28T10:35:16.445Z,0
2022-11-28T10:36:16.465Z,0
2022-11-28T10:37:16.458Z,0
2022-11-28T10:38:16.457Z,0
2022-11-28T10:39:16.463Z,0
2022-11-28T10:40:16.518Z,0
2022-11-28T10:41:16.452Z,0
2022-11-28T10:42:16.467Z,0
2022-11-28T10:43:16.481Z,0
2022-11-28T10:44:21.265Z,0
2022-11-28T10:45:16.462Z,0
2022-11-28T10:46:16.514Z,0
2022-11-28T10:47:16.479Z,0
2022-11-28T10:48:38.847Z,0
2022-11-28T10:49:16.460Z,0
2022-11-28T10:50:16.479Z,0
2022-11-28T10:51:16.466Z,0
2022-11-28T10:52:16.468Z,0
2022-11-28T10:53:16.462Z,0
2022-11-28T10:54:16.473Z,0
2022-11-28T10:55:16.481Z,0
2022-11-28T10:56:16.468Z,0
2022-11-28T10:57:16.468Z,0
2022-11-28T10:58:16.463Z,0
2022-11-28T10:59:16.491Z,0
2022-11-28T11:00:16.463Z,0
2022-11-28T11:01:16.505Z,0
2022-11-28T11:02:16.471Z,0
2022-11-28T11:03:16.458Z,0
2022-11-28T11:04:16.494Z,0
2022-11-28T11:05:16.470Z,0
2022-11-28T11:06:16.473Z,0
2022-11-28T11:07:20.877Z,0
2022-11-28T11:08:16.558Z,0
2022-11-28T11:09:16.473Z,0
2022-11-28T11:10:16.486Z,0
2022-11-28T11:11:16.476Z,0
2022-11-28T11:12:16.477Z,0
2022-11-28T11:13:16.470Z,0
2022-11-28T11:14:16.467Z,0
2022-11-28T11:15:16.509Z,0
2022-11-28T11:16:16.533Z,0
2022-11-28T11:17:16.477Z,0
2022-11-28T11:18:16.479Z,0
2022-11-28T11:19:16.482Z,0
2022-11-28T11:20:16.483Z,0
2022-11-28T11:21:16.487Z,0
2022-11-28T11:22:16.484Z,0
2022-11-28T11:23:16.486Z,0
2022-11-28T11:24:16.478Z,0
2022-11-28T11:25:16.489Z,0
2022-11-28T11:26:16.480Z,0
2022-11-28T11:27:16.492Z,0
2022-11-28T11:28:16.492Z,0
2022-11-28T11:29:16.482Z,0
2022-11-28T11:30:16.485Z,0
2022-11-28T11:31:16.590Z,0
2022-11-28T11:32:16.490Z,0
2022-11-28T11:33:16.488Z,0
2022-11-28T11:34:16.481Z,0
2022-11-28T11:35:16.488Z,0
2022-11-28T11:36:16.496Z,0
2022-11-28T11:37:16.518Z,0
2022-11-28T11:38:16.498Z,0
2022-11-28T11:39:16.497Z,0
2022-11-28T11:40:16.497Z,0
2022-11-28T11:41:16.490Z,0
2022-11-28T11:42:16.507Z,0
2022-11-28T11:43:16.495Z,0
2022-11-28T11:44:16.495Z,0
2022-11-28T11:45:16.504Z,0
2022-11-28T11:46:16.609Z,0
2022-11-28T11:47:16.529Z,0
2022-11-28T11:48:16.515Z,0
2022-11-28T11:49:16.506Z,0
2022-11-28T11:50:16.500Z,0
2022-11-28T11:51:16.500Z,0
2022-11-28T11:52:16.504Z,0
2022-11-28T11:53:16.501Z,0
2022-11-28T11:54:16.516Z,0
2022-11-28T11:55:16.503Z,0
2022-11-28T11:56:16.503Z,0
2022-11-28T11:57:32.375Z,0
2022-11-28T11:58:16.526Z,0
2022-11-28T11:59:16.506Z,0
2022-11-28T12:00:16.539Z,0
2022-11-28T12:01:16.503Z,0
2022-11-28T12:02:16.546Z,0
2022-11-28T12:03:16.611Z,0
2022-11-28T12:04:37.375Z,0
2022-11-28T12:05:16.543Z,0
2022-11-28T12:06:16.515Z,0
2022-11-28T12:07:16.582Z,0
2022-11-28T12:08:16.511Z,0
2022-11-28T12:09:16.512Z,0
2022-11-28T12:10:16.509Z,0
2022-11-28T12:11:16.515Z,0
2022-11-28T12:12:16.521Z,0
2022-11-28T12:13:16.524Z,0
2022-11-28T12:14:16.521Z,0
2022-11-28T12:15:16.535Z,0
2022-11-28T12:16:16.576Z,0
2022-11-28T12:17:40.830Z,0
2022-11-28T12:18:16.519Z,0
2022-11-28T12:19:16.543Z,0
2022-11-28T12:20:16.523Z,0
2022-11-28T12:21:16.524Z,0
2022-11-28T12:22:16.538Z,0
2022-11-28T12:23:17.665Z,0
2022-11-28T12:24:16.526Z,0
2022-11-28T12:25:16.521Z,0
2022-11-28T12:26:16.532Z,0
2022-11-28T12:27:16.527Z,0
2022-11-28T12:28:16.532Z,0
2022-11-28T12:29:16.558Z,0
2022-11-28T12:30:16.538Z,0
2022-11-28T12:31:16.629Z,0
2022-11-28T12:32:16.535Z,0
2022-11-28T12:33:16.551Z,0
2022-11-28T12:34:16.532Z,0
2022-11-28T12:35:16.560Z,0
2022-11-28T12:36:16.529Z,0
2022-11-28T12:37:16.538Z,0
2022-11-28T12:38:16.544Z,0
2022-11-28T12:39:16.548Z,0
2022-11-28T12:40:16.542Z,0
2022-11-28T12:41:16.544Z,0
2022-11-28T12:42:16.544Z,0
2022-11-28T12:43:16.533Z,0
2022-11-28T12:44:16.532Z,0
2022-11-28T12:45:16.538Z,0
2022-11-28T12:46:16.578Z,0
2022-11-28T12:47:16.558Z,0
2022-11-28T12:48:16.546Z,0
2022-11-28T12:49:16.547Z,0
2022-11-28T12:50:16.540Z,0
2022-11-28T12:51:16.571Z,0
2022-11-28T12:52:16.545Z,0
2022-11-28T12:53:16.541Z,0
2022-11-28T12:54:16.548Z,0
2022-11-28T12:55:16.552Z,0
2022-11-28T12:56:16.536Z,0
2022-11-28T12:57:16.554Z,0
2022-11-28T12:58:16.566Z,0
2022-11-28T12:59:16.573Z,0
2022-11-28T13:00:16.555Z,0
2022-11-28T13:01:16.555Z,0
2022-11-28T13:02:16.641Z,0
2022-11-28T13:03:16.632Z,0
2022-11-28T13:04:16.553Z,0
2022-11-28T13:05:16.564Z,0
2022-11-28T13:06:16.560Z,0
2022-11-28T13:07:16.617Z,0
2022-11-28T13:08:16.562Z,0
2022-11-28T13:09:16.556Z,0
2022-11-28T13:10:16.582Z,0
2022-11-28T13:11:16.555Z,0
2022-11-28T13:12:16.558Z,0
2022-11-28T13:13:16.547Z,0
2022-11-28T13:14:16.580Z,0
2022-11-28T13:15:16.562Z,0
2022-11-28T13:16:16.927Z,0
2022-11-28T13:17:16.570Z,0
2022-11-28T13:18:16.580Z,0
2022-11-28T13:19:16.559Z,0
2022-11-28T13:20:16.562Z,0
2022-11-28T13:21:16.585Z,0
2022-11-28T13:22:16.579Z,0
2022-11-28T13:23:16.591Z,0
2022-11-28T13:24:16.568Z,0
2022-11-28T13:25:16.556Z,0
2022-11-28T13:26:16.589Z,0
2022-11-28T13:27:16.564Z,0
2022-11-28T13:28:16.563Z,0
2022-11-28T13:29:16.582Z,0
2022-11-28T13:30:16.574Z,0
2022-11-28T13:31:16.601Z,0
2022-11-28T13:32:16.574Z,0
2022-11-28T13:33:16.585Z,0
2022-11-28T13:34:16.566Z,0
2022-11-28T13:35:16.580Z,0
2022-11-28T13:39:16.843Z,0
2022-11-28T13:40:17.781Z,0
2022-11-28T13:41:35.722Z,0
2022-11-28T13:42:44.181Z,0
2022-11-28T13:43:16.572Z,0
2022-11-28T13:44:16.573Z,0
2022-11-28T13:45:16.581Z,0
2022-11-28T13:46:16.641Z,0
2022-11-28T13:47:16.580Z,0
2022-11-28T13:48:16.577Z,0
2022-11-28T13:49:20.335Z,0
2022-11-28T13:50:16.568Z,0
2022-11-28T13:51:19.228Z,0
2022-11-28T13:52:16.575Z,0
2022-11-28T13:53:16.572Z,0
2022-11-28T13:54:16.587Z,0
2022-11-28T13:55:17.807Z,0
2022-11-28T13:56:16.590Z,0
2022-11-28T13:57:16.567Z,0
2022-11-28T13:58:16.578Z,0
2022-11-28T13:59:16.597Z,0
2022-11-28T14:00:16.564Z,0
2022-11-28T14:01:16.621Z,0
2022-11-28T14:02:16.635Z,0
2022-11-28T14:03:16.640Z,0
2022-11-28T14:04:16.585Z,0
2022-11-28T14:05:20.022Z,0
2022-11-28T14:06:16.582Z,0
2022-11-28T14:07:16.638Z,0
2022-11-28T14:08:16.583Z,0
2022-11-28T14:09:16.594Z,0
2022-11-28T14:10:16.599Z,0
2022-11-28T14:11:16.614Z,0
2022-11-28T14:12:16.602Z,0
2022-11-28T14:13:16.589Z,0
2022-11-28T14:14:16.618Z,0
2022-11-28T14:15:16.619Z,0
2022-11-28T14:16:17.742Z,0
2022-11-28T14:17:16.601Z,0
2022-11-28T14:18:39.556Z,0
2022-11-28T14:19:16.614Z,0
2022-11-28T14:20:16.610Z,0
2022-11-28T14:21:16.650Z,0
2022-11-28T14:22:16.610Z,0
2022-11-28T14:23:16.631Z,0
2022-11-28T14:24:16.611Z,0
2022-11-28T14:25:16.607Z,0
2022-11-28T14:26:16.603Z,0
2022-11-28T14:27:16.749Z,0
2022-11-28T14:28:16.609Z,0
2022-11-28T14:29:16.628Z,0
2022-11-28T14:30:16.609Z,0
2022-11-28T14:31:16.677Z,0
2022-11-28T14:32:29.968Z,0
2022-11-28T14:33:16.609Z,0
2022-11-28T14:34:16.616Z,0
2022-11-28T14:35:16.624Z,0
2022-11-28T14:36:16.619Z,0
2022-11-28T14:37:16.638Z,0
2022-11-28T14:38:16.947Z,0
2022-11-28T14:39:16.652Z,0
2022-11-28T14:40:16.611Z,0
2022-11-28T14:41:16.624Z,0
2022-11-28T14:42:30.856Z,0
2022-11-28T14:43:16.649Z,0
2022-11-28T14:44:16.624Z,0